METAR Data
IDs: Format: Raw Decoded Include TAF

Data at: 1043 UTC 18 Jan 2022

UKDD 181030Z 32013MPS 2600 -SHSN BLSN BKN010 BKN023CB M03/M06 Q1003 TEMPO 34010G16MPS 1100 SHSN BLSN BKN007 BKN020CB